createdAt,value
2018-03-16T00:01:04.485Z,7.50
2018-03-16T00:03:33.276Z,7.50
2018-03-16T00:06:01.316Z,7.40
2018-03-16T00:08:29.375Z,7.50
2018-03-16T00:10:57.409Z,7.50
2018-03-16T00:13:25.475Z,7.40
2018-03-16T00:15:53.505Z,7.50
2018-03-16T00:18:22.333Z,7.40
2018-03-16T00:20:50.372Z,7.40
2018-03-16T00:23:18.429Z,7.50
2018-03-16T00:25:46.468Z,7.50
2018-03-16T00:28:14.517Z,7.50
2018-03-16T00:30:42.565Z,7.50
2018-03-16T00:33:10.620Z,7.50
2018-03-16T00:35:39.427Z,7.50
2018-03-16T00:38:07.492Z,7.50
2018-03-16T00:40:35.608Z,7.50
2018-03-16T00:43:03.705Z,7.40
2018-03-16T00:45:31.782Z,7.50
2018-03-16T00:47:59.820Z,7.50
2018-03-16T00:50:27.952Z,7.50
2018-03-16T00:52:56.044Z,7.40
2018-03-16T00:55:24.110Z,7.40
2018-03-16T00:57:52.925Z,7.40
2018-03-16T01:00:20.989Z,7.40
2018-03-16T01:02:49.793Z,7.40
2018-03-16T01:05:18.612Z,7.50
2018-03-16T01:07:46.652Z,7.40
2018-03-16T01:10:15.490Z,7.50
2018-03-16T01:12:43.553Z,7.50
2018-03-16T01:15:12.366Z,7.60
2018-03-16T01:17:41.210Z,7.50
2018-03-16T01:20:09.269Z,7.50
2018-03-16T01:22:37.317Z,7.60
2018-03-16T01:25:06.147Z,7.60
2018-03-16T01:27:34.190Z,7.60
2018-03-16T01:30:02.262Z,7.60
2018-03-16T01:32:30.301Z,7.60
2018-03-16T01:34:58.349Z,7.60
2018-03-16T01:37:26.409Z,7.60
2018-03-16T01:39:54.449Z,7.60
2018-03-16T01:42:22.522Z,7.50
2018-03-16T01:44:51.338Z,7.50
2018-03-16T01:47:19.383Z,7.50
2018-03-16T01:49:47.424Z,7.40
2018-03-16T01:52:15.471Z,7.50
2018-03-16T01:54:44.300Z,7.50
2018-03-16T01:57:12.389Z,7.50
2018-03-16T01:59:40.452Z,7.60
2018-03-16T02:02:09.262Z,7.60
2018-03-16T02:04:37.334Z,7.50
2018-03-16T02:07:06.144Z,7.60
2018-03-16T02:09:34.954Z,7.50
2018-03-16T02:12:03.016Z,7.50
2018-03-16T02:14:31.842Z,7.50
2018-03-16T02:16:59.898Z,7.50
2018-03-16T02:19:28.713Z,7.50
2018-03-16T02:21:57.543Z,7.40
2018-03-16T02:24:25.581Z,7.40
2018-03-16T02:26:54.414Z,7.40
2018-03-16T02:29:22.457Z,7.40
2018-03-16T02:31:50.517Z,7.40
2018-03-16T02:34:18.557Z,7.40
2018-03-16T02:36:46.614Z,7.40
2018-03-16T02:39:14.695Z,7.40
2018-03-16T02:41:42.733Z,7.40
2018-03-16T02:44:10.802Z,7.40
2018-03-16T02:46:38.857Z,7.40
2018-03-16T02:49:06.901Z,7.40
2018-03-16T02:51:34.986Z,7.30
2018-03-16T02:54:03.017Z,7.30
2018-03-16T02:56:31.852Z,7.30
2018-03-16T02:58:59.914Z,7.30
2018-03-16T03:01:28.724Z,7.30
2018-03-16T03:03:56.781Z,7.30
2018-03-16T03:06:25.582Z,7.20
2018-03-16T03:08:54.405Z,7.20
2018-03-16T03:11:23.269Z,7.20
2018-03-16T03:13:51.743Z,7.20
2018-03-16T03:16:20.555Z,7.20
2018-03-16T03:18:48.617Z,7.20
2018-03-16T03:21:16.663Z,7.20
2018-03-16T03:23:45.485Z,7.20
2018-03-16T03:26:13.530Z,7.20
2018-03-16T03:28:41.588Z,7.30
2018-03-16T03:31:09.636Z,7.30
2018-03-16T03:33:37.686Z,7.30
2018-03-16T03:36:05.745Z,7.30
2018-03-16T03:38:33.782Z,7.30
2018-03-16T03:41:01.840Z,7.40
2018-03-16T03:43:29.885Z,7.40
2018-03-16T03:45:57.945Z,7.40
2018-03-16T03:48:25.985Z,7.40
2018-03-16T03:50:54.045Z,7.40
2018-03-16T03:53:22.108Z,7.40
2018-03-16T03:55:50.165Z,7.40
2018-03-16T03:58:18.973Z,7.40
2018-03-16T04:00:47.046Z,7.30
2018-03-16T04:03:15.853Z,7.40
2018-03-16T04:05:44.658Z,7.40
2018-03-16T04:08:12.721Z,7.40
2018-03-16T04:10:41.529Z,7.40
2018-03-16T04:13:10.353Z,7.30
2018-03-16T04:15:38.405Z,7.30
2018-03-16T04:18:06.460Z,7.30
2018-03-16T04:20:34.501Z,7.30
2018-03-16T04:23:02.569Z,7.30
2018-03-16T04:25:31.373Z,7.40
2018-03-16T04:28:00.202Z,7.30
2018-03-16T04:30:28.266Z,7.30
2018-03-16T04:32:57.089Z,7.30
2018-03-16T04:35:25.149Z,7.30
2018-03-16T04:37:53.973Z,7.30
2018-03-16T04:40:22.021Z,7.30
2018-03-16T04:42:50.855Z,7.30
2018-03-16T04:45:18.972Z,7.30
2018-03-16T04:47:47.033Z,7.20
2018-03-16T04:50:15.081Z,7.30
2018-03-16T04:52:43.137Z,7.30
2018-03-16T04:55:11.209Z,7.30
2018-03-16T04:57:39.261Z,7.30
2018-03-16T05:00:07.306Z,7.30
2018-03-16T05:02:35.366Z,7.30
2018-03-16T05:05:03.419Z,7.20
2018-03-16T05:07:31.478Z,7.20
2018-03-16T05:10:00.310Z,7.10
2018-03-16T05:12:28.354Z,7.10
2018-03-16T05:14:56.413Z,7.10
2018-03-16T05:17:24.454Z,7.00
2018-03-16T05:19:52.513Z,7.00
2018-03-16T05:22:21.320Z,6.90
2018-03-16T05:24:50.143Z,6.90
2018-03-16T05:27:18.205Z,6.90
2018-03-16T05:29:47.018Z,7.00
2018-03-16T05:32:15.077Z,7.00
2018-03-16T05:34:43.573Z,7.00
2018-03-16T05:37:11.634Z,7.00
2018-03-16T05:39:39.681Z,7.00
2018-03-16T05:42:07.741Z,7.00
2018-03-16T05:44:36.554Z,7.10
2018-03-16T05:47:04.615Z,7.00
2018-03-16T05:49:32.674Z,7.10
2018-03-16T05:52:00.741Z,7.10
2018-03-16T05:54:28.814Z,7.10
2018-03-16T05:56:56.870Z,7.20
2018-03-16T05:59:25.685Z,7.10
2018-03-16T06:01:53.741Z,7.00
2018-03-16T06:04:22.553Z,7.10
2018-03-16T06:06:51.378Z,7.10
2018-03-16T06:09:19.421Z,7.10
2018-03-16T06:11:47.486Z,7.10
2018-03-16T06:14:15.542Z,7.20
2018-03-16T06:16:43.585Z,7.10
2018-03-16T06:19:12.414Z,7.10
2018-03-16T06:21:40.477Z,7.20
2018-03-16T06:24:09.294Z,7.10
2018-03-16T06:26:37.338Z,7.10
2018-03-16T06:29:06.904Z,7.20
2018-03-16T06:31:34.946Z,7.20
2018-03-16T06:34:03.005Z,7.20
2018-03-16T06:36:31.057Z,7.20
2018-03-16T06:38:59.126Z,7.20
2018-03-16T06:41:27.935Z,7.20
2018-03-16T06:43:55.980Z,7.20
2018-03-16T06:46:24.034Z,7.10
2018-03-16T06:48:52.095Z,7.20
2018-03-16T06:51:20.154Z,7.20
2018-03-16T06:53:48.965Z,7.20
2018-03-16T06:56:17.034Z,7.20
2018-03-16T06:58:45.850Z,7.20
2018-03-16T07:01:14.681Z,7.20
2018-03-16T07:03:42.725Z,7.20
2018-03-16T07:06:11.581Z,7.20
2018-03-16T07:08:39.642Z,7.20
2018-03-16T07:11:07.685Z,7.30
2018-03-16T07:13:36.529Z,7.30
2018-03-16T07:16:04.565Z,7.30
2018-03-16T07:18:33.471Z,7.30
2018-03-16T07:21:01.533Z,7.30
2018-03-16T07:23:29.570Z,7.20
2018-03-16T07:25:57.633Z,7.30
2018-03-16T07:28:25.674Z,7.30
2018-03-16T07:30:53.742Z,7.30
2018-03-16T07:33:21.774Z,7.30
2018-03-16T07:35:49.837Z,7.30
2018-03-16T07:38:17.895Z,7.30
2018-03-16T07:40:45.942Z,7.30
2018-03-16T07:43:13.996Z,7.40
2018-03-16T07:45:47.610Z,7.40
2018-03-16T07:48:15.677Z,7.40
2018-03-16T07:50:43.719Z,7.40
2018-03-16T07:53:12.553Z,7.50
2018-03-16T07:55:40.589Z,7.50
2018-03-16T07:58:09.401Z,7.60
2018-03-16T08:00:38.230Z,7.60
2018-03-16T08:03:06.273Z,7.60
2018-03-16T08:05:35.098Z,7.70
2018-03-16T08:08:03.141Z,7.60
2018-03-16T08:10:31.285Z,7.60
2018-03-16T08:12:59.349Z,7.60
2018-03-16T08:15:27.380Z,7.60
2018-03-16T08:17:55.441Z,7.60
2018-03-16T08:20:23.489Z,7.60
2018-03-16T08:22:51.602Z,7.60
2018-03-16T08:25:19.648Z,7.60
2018-03-16T08:27:47.777Z,7.50
2018-03-16T08:30:15.825Z,7.50
2018-03-16T08:32:44.650Z,7.60
2018-03-16T08:35:12.714Z,7.60
2018-03-16T08:37:41.525Z,7.60
2018-03-16T08:40:10.354Z,7.60
2018-03-16T08:42:38.409Z,7.60
2018-03-16T08:45:07.225Z,7.50
2018-03-16T08:47:35.288Z,7.60
2018-03-16T08:50:04.101Z,7.50
2018-03-16T08:52:32.935Z,7.50
2018-03-16T08:55:00.973Z,7.50
2018-03-16T08:57:29.033Z,7.50
2018-03-16T08:59:57.101Z,7.50
2018-03-16T09:02:25.151Z,7.50
2018-03-16T09:04:53.216Z,7.60
2018-03-16T09:07:22.017Z,7.60
2018-03-16T09:09:50.842Z,7.60
2018-03-16T09:12:18.921Z,7.60
2018-03-16T09:14:47.730Z,7.60
2018-03-16T09:17:15.774Z,7.60
2018-03-16T09:19:45.334Z,7.70
2018-03-16T09:22:13.376Z,7.70
2018-03-16T09:24:41.429Z,7.70
2018-03-16T09:27:09.468Z,7.60
2018-03-16T09:29:38.296Z,7.70
2018-03-16T09:32:06.338Z,7.60
2018-03-16T09:34:34.459Z,7.70
2018-03-16T09:37:02.498Z,7.70
2018-03-16T09:39:30.557Z,7.70
2018-03-16T09:41:58.618Z,7.70
2018-03-16T09:44:26.666Z,7.70
2018-03-16T09:46:55.509Z,7.70
2018-03-16T09:49:23.557Z,7.70
2018-03-16T09:51:52.370Z,7.70
2018-03-16T09:54:21.201Z,7.80
2018-03-16T09:56:49.246Z,7.70
2018-03-16T09:59:18.069Z,7.70
2018-03-16T10:01:46.129Z,7.70
2018-03-16T10:04:15.067Z,7.80
2018-03-16T10:06:43.111Z,7.80
2018-03-16T10:09:11.176Z,7.90
2018-03-16T10:11:39.223Z,7.80
2018-03-16T10:14:07.289Z,7.90
2018-03-16T10:16:35.338Z,8.00
2018-03-16T10:19:03.381Z,7.90
2018-03-16T10:21:31.449Z,7.90
2018-03-16T10:23:59.495Z,7.80
2018-03-16T10:26:27.554Z,7.90
2018-03-16T10:28:55.626Z,8.00
2018-03-16T10:31:23.674Z,7.90
2018-03-16T10:33:52.487Z,8.10
2018-03-16T10:36:20.541Z,8.00
2018-03-16T10:38:49.356Z,8.30
2018-03-16T10:41:18.190Z,8.40
2018-03-16T10:43:46.229Z,8.40
2018-03-16T10:46:15.037Z,8.30
2018-03-16T10:48:43.862Z,8.20
2018-03-16T10:51:11.926Z,8.20
2018-03-16T10:53:40.733Z,8.40
2018-03-16T10:56:09.553Z,8.40
2018-03-16T10:58:37.820Z,8.40
2018-03-16T11:01:11.410Z,8.40
2018-03-16T11:03:45.947Z,8.40
2018-03-16T11:06:19.603Z,8.50
2018-03-16T11:08:47.642Z,8.40
2018-03-16T11:11:15.702Z,8.40
2018-03-16T11:13:44.514Z,8.50
2018-03-16T11:16:12.573Z,8.50
2018-03-16T11:18:40.673Z,8.50
2018-03-16T11:21:08.718Z,8.50
2018-03-16T11:23:37.545Z,8.50
2018-03-16T11:26:05.593Z,8.40
2018-03-16T11:28:34.418Z,8.50
2018-03-16T11:31:02.469Z,8.50
2018-03-16T11:33:30.531Z,8.40
2018-03-16T11:35:58.570Z,8.40
2018-03-16T11:38:26.637Z,8.30
2018-03-16T11:40:55.446Z,8.20
2018-03-16T11:43:24.273Z,8.30
2018-03-16T11:45:52.329Z,8.30
2018-03-16T11:48:21.154Z,8.30
2018-03-16T11:50:49.198Z,8.30
2018-03-16T11:53:17.264Z,8.30
2018-03-16T11:55:45.305Z,8.30
2018-03-16T11:58:13.362Z,8.40
2018-03-16T12:00:42.182Z,8.50
2018-03-16T12:03:10.252Z,8.50
2018-03-16T12:05:39.054Z,8.50
2018-03-16T12:08:07.870Z,8.40
2018-03-16T12:10:35.909Z,8.40
2018-03-16T12:13:04.738Z,8.40
2018-03-16T12:15:33.541Z,8.40
2018-03-16T12:18:02.369Z,8.50
2018-03-16T12:20:30.418Z,8.50
2018-03-16T12:22:59.246Z,8.60
2018-03-16T12:25:27.288Z,8.60
2018-03-16T12:27:55.370Z,8.70
2018-03-16T12:30:23.417Z,8.70
2018-03-16T12:32:51.465Z,8.70
2018-03-16T12:35:20.303Z,8.70
2018-03-16T12:37:48.385Z,8.70
2018-03-16T12:40:16.471Z,8.70
2018-03-16T12:42:44.518Z,8.80
2018-03-16T12:45:13.336Z,8.80
2018-03-16T12:47:41.413Z,8.80
2018-03-16T12:50:10.210Z,8.80
2018-03-16T12:52:39.044Z,8.80
2018-03-16T12:55:07.089Z,8.80
2018-03-16T12:57:35.929Z,8.90
2018-03-16T13:00:03.977Z,8.90
2018-03-16T13:02:32.785Z,9.00
2018-03-16T13:05:01.705Z,9.10
2018-03-16T13:07:29.753Z,9.10
2018-03-16T13:09:57.813Z,9.10
2018-03-16T13:12:25.877Z,9.20
2018-03-16T13:14:53.930Z,9.20
2018-03-16T13:17:22.761Z,9.10
2018-03-16T13:19:50.813Z,9.10
2018-03-16T13:22:19.622Z,9.00
2018-03-16T13:24:47.679Z,9.00
2018-03-16T13:27:15.727Z,8.90
2018-03-16T13:29:43.794Z,8.90
2018-03-16T13:32:11.841Z,9.10
2018-03-16T13:34:40.670Z,9.40
2018-03-16T13:37:08.717Z,9.40
2018-03-16T13:39:36.946Z,9.40
2018-03-16T13:42:04.985Z,9.50
2018-03-16T13:44:33.037Z,9.70
2018-03-16T13:47:01.110Z,9.80
2018-03-16T13:49:29.197Z,9.90
2018-03-16T13:51:57.325Z,9.80
2018-03-16T13:54:25.325Z,9.80
2018-03-16T13:56:54.141Z,9.70
2018-03-16T13:59:22.212Z,9.70
2018-03-16T14:01:51.022Z,9.60
2018-03-16T14:04:19.846Z,9.50
2018-03-16T14:06:47.897Z,9.50
2018-03-16T14:09:16.738Z,9.40
2018-03-16T14:11:44.787Z,9.40
2018-03-16T14:14:13.614Z,9.30
2018-03-16T14:16:41.665Z,9.30
2018-03-16T14:19:09.726Z,9.30
2018-03-16T14:21:37.779Z,9.20
2018-03-16T14:24:05.849Z,9.20
2018-03-16T14:26:33.889Z,9.20
2018-03-16T14:29:01.938Z,9.20
2018-03-16T14:31:30.010Z,9.30
2018-03-16T14:33:58.061Z,9.30
2018-03-16T14:36:26.890Z,9.60
2018-03-16T14:38:54.939Z,9.50
2018-03-16T14:41:23.002Z,9.70
2018-03-16T14:43:51.072Z,9.90
2018-03-16T14:46:19.118Z,10.00
2018-03-16T14:48:47.185Z,10.10
2018-03-16T14:51:16.003Z,10.30
2018-03-16T14:53:44.069Z,10.30
2018-03-16T14:56:12.886Z,10.40
2018-03-16T14:58:40.966Z,10.30
2018-03-16T15:01:09.853Z,10.10
2018-03-16T15:03:37.934Z,10.20
2018-03-16T15:06:05.990Z,10.10
2018-03-16T15:08:34.050Z,10.10
2018-03-16T15:11:02.133Z,10.10
2018-03-16T15:13:30.186Z,10.00
2018-03-16T15:15:59.005Z,9.90
2018-03-16T15:18:27.065Z,9.90
2018-03-16T15:20:55.894Z,9.70
2018-03-16T15:23:23.957Z,9.80
2018-03-16T15:25:52.774Z,9.70
2018-03-16T15:28:20.830Z,9.70
2018-03-16T15:30:49.670Z,9.60
2018-03-16T15:33:17.722Z,9.60
2018-03-16T15:35:45.766Z,9.50
2018-03-16T15:38:13.830Z,9.50
2018-03-16T15:40:41.885Z,9.50
2018-03-16T15:43:10.725Z,9.50
2018-03-16T15:45:38.765Z,9.50
2018-03-16T15:48:07.598Z,9.40
2018-03-16T15:50:35.678Z,9.40
2018-03-16T15:53:03.737Z,9.40
2018-03-16T15:55:32.596Z,9.30
2018-03-16T15:58:00.642Z,9.30
2018-03-16T16:00:29.461Z,9.20
2018-03-16T16:02:57.509Z,9.20
2018-03-16T16:05:26.334Z,9.20
2018-03-16T16:07:54.379Z,9.20
2018-03-16T16:10:23.209Z,9.10
2018-03-16T16:12:52.023Z,9.10
2018-03-16T16:15:20.060Z,9.10
2018-03-16T16:17:48.134Z,9.00
2018-03-16T16:20:16.173Z,9.10
2018-03-16T16:22:44.226Z,9.00
2018-03-16T16:25:12.282Z,9.00
2018-03-16T16:27:40.321Z,9.00
2018-03-16T16:30:08.376Z,9.00
2018-03-16T16:32:36.438Z,9.00
2018-03-16T16:35:04.595Z,9.00
2018-03-16T16:37:32.642Z,9.00
2018-03-16T16:40:01.466Z,9.00
2018-03-16T16:42:29.506Z,9.00
2018-03-16T16:44:59.085Z,9.00
2018-03-16T16:47:27.130Z,9.00
2018-03-16T16:49:55.961Z,9.00
2018-03-16T16:52:24.001Z,9.00
2018-03-16T16:54:52.161Z,9.00
2018-03-16T16:57:20.101Z,8.90
2018-03-16T16:59:48.174Z,8.80
2018-03-16T17:02:16.985Z,8.80
2018-03-16T17:04:45.943Z,8.70
2018-03-16T17:07:14.013Z,8.70
2018-03-16T17:09:42.058Z,8.70
2018-03-16T17:12:10.113Z,8.60
2018-03-16T17:14:38.933Z,8.60
2018-03-16T17:17:07.754Z,8.60
2018-03-16T17:19:35.802Z,8.50
2018-03-16T17:22:04.644Z,8.40
2018-03-16T17:24:33.453Z,8.30
2018-03-16T17:27:01.500Z,8.30
2018-03-16T17:29:29.570Z,8.40
2018-03-16T17:31:57.653Z,8.40
2018-03-16T17:34:25.690Z,8.30
2018-03-16T17:36:53.740Z,8.30
2018-03-16T17:39:22.565Z,8.30
2018-03-16T17:41:50.605Z,8.20
2018-03-16T17:44:20.185Z,8.20
2018-03-16T17:46:48.258Z,8.20
2018-03-16T17:49:16.305Z,8.30
2018-03-16T17:51:44.370Z,8.30
2018-03-16T17:54:12.409Z,8.20
2018-03-16T17:56:40.458Z,8.20
2018-03-16T17:59:08.509Z,8.20
2018-03-16T18:01:36.555Z,8.20
2018-03-16T18:04:04.627Z,8.20
2018-03-16T18:06:33.453Z,8.10
2018-03-16T18:09:01.509Z,8.10
2018-03-16T18:11:30.322Z,8.10
2018-03-16T18:13:59.147Z,8.00
2018-03-16T18:16:27.194Z,8.00
2018-03-16T18:18:56.030Z,7.90
2018-03-16T18:21:24.098Z,7.90
2018-03-16T18:23:52.901Z,7.90
2018-03-16T18:26:20.949Z,7.90
2018-03-16T18:28:49.050Z,7.90
2018-03-16T18:31:17.076Z,7.90
2018-03-16T18:33:45.131Z,7.80
2018-03-16T18:36:13.958Z,7.70
2018-03-16T18:38:42.006Z,7.70
2018-03-16T18:41:10.838Z,7.70
2018-03-16T18:43:38.889Z,7.60
2018-03-16T18:46:07.726Z,7.60
2018-03-16T18:48:35.765Z,7.60
2018-03-16T18:51:04.581Z,7.50
2018-03-16T18:53:33.411Z,7.60
2018-03-16T18:56:01.477Z,7.50
2018-03-16T18:58:30.305Z,7.50
2018-03-16T19:00:58.381Z,7.60
2018-03-16T19:03:26.421Z,7.50
2018-03-16T19:05:54.466Z,7.50
2018-03-16T19:08:22.579Z,7.50
2018-03-16T19:10:50.615Z,7.40
2018-03-16T19:13:18.658Z,7.40
2018-03-16T19:15:46.718Z,7.40
2018-03-16T19:18:14.766Z,7.40
2018-03-16T19:20:42.821Z,7.30
2018-03-16T19:23:11.638Z,7.20
2018-03-16T19:25:40.461Z,7.20
2018-03-16T19:28:08.534Z,7.20
2018-03-16T19:30:36.569Z,7.20
2018-03-16T19:33:04.625Z,7.20
2018-03-16T19:35:32.669Z,7.20
2018-03-16T19:38:01.503Z,7.20
2018-03-16T19:40:29.532Z,7.20
2018-03-16T19:42:57.595Z,7.20
2018-03-16T19:45:25.660Z,7.20
2018-03-16T19:47:53.694Z,7.20
2018-03-16T19:50:21.766Z,7.20
2018-03-16T19:52:51.321Z,7.10
2018-03-16T19:55:20.135Z,7.10
2018-03-16T19:57:48.250Z,7.10
2018-03-16T20:00:16.290Z,7.10
2018-03-16T20:02:45.121Z,7.20
2018-03-16T20:05:13.214Z,7.10
2018-03-16T20:07:41.262Z,7.20
2018-03-16T20:10:10.085Z,7.10
2018-03-16T20:12:38.136Z,7.10
2018-03-16T20:15:06.969Z,7.10
2018-03-16T20:17:35.013Z,7.10
2018-03-16T20:20:03.067Z,7.10
2018-03-16T20:22:31.129Z,7.10
2018-03-16T20:24:59.165Z,7.10
2018-03-16T20:27:27.997Z,7.10
2018-03-16T20:29:56.092Z,7.00
2018-03-16T20:32:25.005Z,7.10
2018-03-16T20:34:53.058Z,7.00
2018-03-16T20:37:21.866Z,6.90
2018-03-16T20:39:50.694Z,6.90
2018-03-16T20:42:18.746Z,6.90
2018-03-16T20:44:47.566Z,6.80
2018-03-16T20:47:15.614Z,6.80
2018-03-16T20:49:43.677Z,6.80
2018-03-16T20:52:11.722Z,6.80
2018-03-16T20:54:39.786Z,6.80
2018-03-16T20:57:08.593Z,6.90
2018-03-16T20:59:36.666Z,6.80
2018-03-16T21:02:05.479Z,6.70
2018-03-16T21:04:34.285Z,6.60
2018-03-16T21:07:02.343Z,6.60
2018-03-16T21:09:30.389Z,6.50
2018-03-16T21:11:58.458Z,6.40
2018-03-16T21:14:26.497Z,6.30
2018-03-16T21:16:54.549Z,6.30
2018-03-16T21:19:22.595Z,6.20
2018-03-16T21:21:50.661Z,6.20
2018-03-16T21:24:19.461Z,6.10
2018-03-16T21:26:48.294Z,6.00
2018-03-16T21:29:16.358Z,6.00
2018-03-16T21:31:45.378Z,5.90
2018-03-16T21:34:13.437Z,5.90
2018-03-16T21:36:42.254Z,5.70
2018-03-16T21:39:10.318Z,5.70
2018-03-16T21:41:39.145Z,5.70
2018-03-16T21:44:07.197Z,5.70
2018-03-16T21:46:35.266Z,5.60
2018-03-16T21:49:03.310Z,5.70
2018-03-16T21:51:31.357Z,5.80
2018-03-16T21:53:59.417Z,5.80
2018-03-16T21:56:27.457Z,5.90
2018-03-16T21:58:55.518Z,5.90
2018-03-16T22:01:24.352Z,5.90
2018-03-16T22:03:53.158Z,5.90
2018-03-16T22:06:21.202Z,5.90
2018-03-16T22:08:50.037Z,5.80
2018-03-16T22:11:18.077Z,5.80
2018-03-16T22:13:46.125Z,5.80
2018-03-16T22:16:14.185Z,5.80
2018-03-16T22:18:42.297Z,5.80
2018-03-16T22:21:10.361Z,5.80
2018-03-16T22:23:38.406Z,5.80
2018-03-16T22:26:07.254Z,5.70
2018-03-16T22:28:35.305Z,5.80
2018-03-16T22:31:04.232Z,5.70
2018-03-16T22:33:32.270Z,5.70
2018-03-16T22:36:01.098Z,5.50
2018-03-16T22:38:29.929Z,5.30
2018-03-16T22:40:57.978Z,5.30
2018-03-16T22:43:26.786Z,5.10
2018-03-16T22:45:55.624Z,5.00
2018-03-16T22:48:23.663Z,5.00
2018-03-16T22:50:52.475Z,4.90
2018-03-16T22:53:21.299Z,4.90
2018-03-16T22:55:49.345Z,4.80
2018-03-16T22:58:18.159Z,5.00
2018-03-16T23:00:46.978Z,5.00
2018-03-16T23:03:15.022Z,4.90
2018-03-16T23:05:43.088Z,4.90
2018-03-16T23:08:11.129Z,4.90
2018-03-16T23:10:39.195Z,4.80
2018-03-16T23:13:08.010Z,4.70
2018-03-16T23:15:36.076Z,4.60
2018-03-16T23:18:04.877Z,4.50
2018-03-16T23:20:33.694Z,4.40
2018-03-16T23:23:01.757Z,4.40
2018-03-16T23:25:30.569Z,4.40
2018-03-16T23:27:59.397Z,4.40
2018-03-16T23:30:27.444Z,4.40
2018-03-16T23:32:55.700Z,4.50
2018-03-16T23:35:23.731Z,4.50
2018-03-16T23:37:52.550Z,4.60
2018-03-16T23:40:20.597Z,4.50
2018-03-16T23:42:48.653Z,4.60
2018-03-16T23:45:16.699Z,4.60
2018-03-16T23:47:44.762Z,4.60
2018-03-16T23:50:13.585Z,4.60
2018-03-16T23:52:41.633Z,4.60
2018-03-16T23:55:09.694Z,4.60
2018-03-16T23:57:37.773Z,4.60
